createdAt,value
2018-11-21T09:24:55.841Z,99.90
2018-11-21T09:29:51.902Z,99.90
2018-11-21T09:34:48.154Z,99.90
2018-11-21T09:39:44.402Z,99.90
2018-11-21T09:44:42.744Z,99.90
2018-11-21T09:49:39.082Z,99.90
2018-11-21T09:54:35.234Z,99.90
2018-11-21T09:59:31.310Z,99.90
2018-11-21T10:04:27.390Z,99.90
2018-11-21T10:09:26.007Z,99.90
2018-11-21T10:14:22.169Z,99.90
2018-11-21T10:19:18.270Z,99.90
2018-11-21T10:24:15.407Z,99.90
2018-11-21T10:29:11.550Z,99.90
2018-11-21T10:34:07.673Z,99.10
2018-11-21T10:39:04.198Z,98.90
2018-11-21T10:44:00.282Z,98.90
2018-11-21T10:48:56.373Z,99.20
2018-11-21T10:53:52.509Z,99.30
2018-11-21T10:58:48.617Z,99.70
2018-11-21T11:03:56.398Z,99.70
2018-11-21T11:09:09.652Z,99.80
2018-11-21T11:14:30.274Z,99.90
2018-11-21T11:19:50.890Z,99.10
2018-11-21T11:25:08.639Z,98.30
2018-11-21T11:30:29.461Z,98.40
2018-11-21T11:35:39.114Z,98.70
2018-11-21T11:41:02.800Z,99.30
2018-11-21T11:46:37.800Z,99.10
2018-11-21T11:52:07.984Z,98.90
2018-11-21T11:57:28.614Z,98.50
2018-11-21T12:02:58.709Z,97.90
2018-11-21T12:08:11.838Z,97.80
2018-11-21T12:13:32.244Z,98.50
2018-11-21T12:18:45.758Z,98.30
2018-11-21T12:24:09.831Z,98.80
2018-11-21T12:29:25.137Z,98.80
2018-11-21T12:34:55.168Z,99.00
2018-11-21T12:40:15.830Z,99.20
2018-11-21T12:45:48.621Z,99.30
2018-11-21T12:51:06.126Z,99.70
2018-11-21T12:56:32.781Z,99.90
2018-11-21T13:01:43.825Z,99.90
2018-11-21T13:07:02.210Z,99.90
2018-11-21T13:12:22.833Z,99.90
2018-11-21T13:17:36.505Z,99.90
2018-11-21T13:22:58.355Z,99.90
2018-11-21T13:28:14.328Z,99.90
2018-11-21T13:33:39.829Z,99.90
2018-11-21T13:38:51.242Z,99.90
2018-11-21T13:44:18.155Z,99.90
2018-11-21T13:49:41.837Z,99.90
2018-11-21T13:55:02.654Z,99.90
2018-11-21T13:59:59.186Z,99.90
2018-11-21T14:04:55.806Z,99.90
2018-11-21T14:09:52.166Z,99.90
2018-11-21T14:14:49.223Z,99.90
2018-11-21T14:19:45.517Z,99.90
2018-11-21T14:24:41.786Z,99.90
2018-11-21T14:29:38.543Z,99.90
2018-11-21T14:34:34.836Z,99.90
2018-11-21T14:39:31.130Z,99.90
2018-11-21T14:44:27.380Z,99.90
2018-11-21T14:49:23.613Z,99.90
2018-11-21T14:54:19.816Z,99.90
2018-11-21T14:59:16.039Z,99.90
2018-11-21T15:04:12.297Z,99.90
2018-11-21T15:09:12.432Z,99.90
2018-11-21T15:14:08.733Z,99.90
2018-11-21T15:19:05.164Z,99.90
2018-11-21T15:24:01.384Z,99.90
2018-11-21T15:28:57.937Z,99.90
2018-11-21T15:33:54.210Z,99.90
2018-11-21T15:38:50.476Z,99.90
2018-11-21T15:43:46.726Z,99.90
2018-11-21T15:48:42.958Z,99.90
2018-11-21T15:53:39.501Z,99.90
2018-11-21T15:58:35.874Z,99.90
2018-11-21T16:03:32.101Z,99.90
2018-11-21T16:08:28.339Z,99.90
2018-11-21T16:13:24.671Z,99.90
2018-11-21T16:18:22.173Z,99.90
2018-11-21T16:23:18.429Z,99.90
2018-11-21T16:28:14.791Z,99.90
2018-11-21T16:33:11.263Z,99.90
2018-11-21T16:38:08.121Z,99.90
2018-11-21T16:43:05.358Z,99.90
2018-11-21T16:48:01.640Z,99.90
2018-11-21T16:52:57.942Z,99.90
2018-11-21T16:57:55.151Z,99.90
2018-11-21T17:02:51.442Z,99.90
2018-11-21T17:07:47.766Z,99.90
2018-11-21T17:12:44.586Z,99.90
2018-11-21T17:17:41.146Z,99.90
2018-11-21T17:22:37.398Z,99.90
2018-11-21T17:27:33.625Z,99.90
2018-11-21T17:32:30.685Z,99.90
2018-11-21T17:37:29.409Z,99.90
2018-11-21T17:42:26.146Z,99.90
2018-11-21T17:47:23.053Z,99.90
2018-11-21T17:52:22.207Z,99.90
2018-11-21T17:57:18.573Z,99.90
2018-11-21T18:02:15.693Z,99.90
2018-11-21T18:07:11.967Z,99.90
2018-11-21T18:12:08.229Z,99.90
2018-11-21T18:17:04.460Z,99.90
2018-11-21T18:22:00.878Z,99.90
2018-11-21T18:26:57.158Z,99.90
2018-11-21T18:31:53.494Z,99.90
2018-11-21T18:36:49.873Z,99.90
2018-11-21T18:41:46.117Z,99.90
2018-11-21T18:46:42.363Z,99.90
2018-11-21T18:51:38.585Z,99.90
